createdAt,value
2023-05-05T00:00:16.118Z,5.30
2023-05-05T00:05:19.162Z,5.87
2023-05-05T00:10:22.301Z,5.00
2023-05-05T00:15:27.374Z,5.57
2023-05-05T00:20:30.457Z,7.50
2023-05-05T00:25:33.513Z,5.30
2023-05-05T00:30:38.232Z,4.87
2023-05-05T00:35:41.598Z,4.97
2023-05-05T00:40:44.638Z,5.57
2023-05-05T00:45:55.731Z,5.00
2023-05-05T00:50:59.235Z,5.60
2023-05-05T00:56:02.636Z,5.20
2023-05-05T01:01:07.515Z,6.03
2023-05-05T01:06:23.836Z,5.00
2023-05-05T01:11:33.539Z,5.20
2023-05-05T01:16:41.491Z,5.63
2023-05-05T01:21:49.424Z,5.13
2023-05-05T01:27:01.390Z,5.67
2023-05-05T01:32:11.008Z,5.93
2023-05-05T01:37:20.718Z,5.43
2023-05-05T01:42:26.637Z,6.10
2023-05-05T01:47:32.282Z,5.97
2023-05-05T01:52:37.830Z,6.27
2023-05-05T01:57:43.740Z,6.20
2023-05-05T02:02:50.787Z,6.20
2023-05-05T02:07:58.128Z,6.73
2023-05-05T02:13:02.868Z,6.87
2023-05-05T02:18:08.158Z,7.17
2023-05-05T02:23:11.599Z,7.43
2023-05-05T02:28:22.186Z,7.30
2023-05-05T02:33:29.237Z,7.93
2023-05-05T02:38:34.565Z,7.33
2023-05-05T02:43:41.950Z,8.77
2023-05-05T02:48:47.047Z,7.90
2023-05-05T02:53:50.656Z,8.27
2023-05-05T02:58:58.252Z,8.77
2023-05-05T03:04:08.158Z,8.97
2023-05-05T03:09:14.333Z,7.90
2023-05-05T03:14:21.504Z,7.47
2023-05-05T03:19:27.402Z,7.17
2023-05-05T03:24:30.467Z,7.60
2023-05-05T03:29:33.480Z,6.77
2023-05-05T03:34:38.039Z,7.13
2023-05-05T03:39:41.061Z,8.13
2023-05-05T03:44:44.133Z,7.07
2023-05-05T03:49:48.569Z,8.87
2023-05-05T03:54:51.575Z,6.80
2023-05-05T03:59:54.646Z,7.80
2023-05-05T04:04:59.452Z,7.67
2023-05-05T04:10:02.491Z,7.23
2023-05-05T04:15:06.802Z,8.50
2023-05-05T04:20:12.079Z,9.67
2023-05-05T04:25:15.390Z,8.70
2023-05-05T04:30:18.471Z,8.53
2023-05-05T04:35:23.467Z,9.17
2023-05-05T04:40:27.094Z,8.83
2023-05-05T04:45:30.492Z,8.67
2023-05-05T04:50:34.864Z,9.37
2023-05-05T04:55:38.098Z,8.77
2023-05-05T05:00:41.199Z,8.10
2023-05-05T05:05:45.992Z,8.70
2023-05-05T05:10:49.286Z,8.47
2023-05-05T05:15:52.531Z,9.77
2023-05-05T05:20:57.662Z,8.63
2023-05-05T05:26:01.258Z,8.00
2023-05-05T05:31:04.812Z,9.83
2023-05-05T05:36:09.694Z,9.33
2023-05-05T05:41:12.757Z,9.63
2023-05-05T05:46:15.873Z,10.30
2023-05-05T05:51:20.290Z,9.17
2023-05-05T05:56:23.944Z,9.50
2023-05-05T06:01:27.310Z,9.33
2023-05-05T06:06:31.754Z,8.50
2023-05-05T06:11:34.973Z,9.17
2023-05-05T06:16:38.010Z,9.07
2023-05-05T06:21:42.470Z,9.90
2023-05-05T06:26:45.494Z,9.30
2023-05-05T06:31:48.582Z,9.57
2023-05-05T06:36:53.035Z,9.67
2023-05-05T06:41:56.265Z,10.27
2023-05-05T06:46:59.379Z,13.23
2023-05-05T06:52:03.749Z,9.80
2023-05-05T06:57:06.769Z,9.67
2023-05-05T07:02:09.777Z,9.80
2023-05-05T07:07:14.100Z,9.83
2023-05-05T07:12:17.280Z,9.93
2023-05-05T07:17:20.301Z,9.10
2023-05-05T07:22:24.749Z,9.83
2023-05-05T07:27:27.783Z,10.63
2023-05-05T07:32:31.370Z,9.93
2023-05-05T07:37:36.192Z,9.73
2023-05-05T07:42:39.371Z,11.57
2023-05-05T07:47:42.469Z,10.68
2023-05-05T07:52:51.868Z,11.52
2023-05-05T07:58:03.980Z,11.40
2023-05-05T08:03:09.678Z,11.65
2023-05-05T08:08:15.802Z,12.30
2023-05-05T08:13:19.085Z,12.00
2023-05-05T08:18:22.112Z,11.85
2023-05-05T08:23:26.464Z,11.60
2023-05-05T08:28:30.046Z,11.35
2023-05-05T08:33:33.098Z,10.77
2023-05-05T08:38:37.452Z,12.20
2023-05-05T08:43:41.156Z,12.85
2023-05-05T08:48:45.790Z,12.20
2023-05-05T08:53:58.223Z,12.25
2023-05-05T08:59:01.530Z,10.98
2023-05-05T09:04:07.927Z,11.05
2023-05-05T09:09:12.734Z,13.02
2023-05-05T09:14:15.846Z,13.32
2023-05-05T09:19:18.876Z,15.88
2023-05-05T09:24:23.298Z,12.02
2023-05-05T09:29:27.175Z,12.27
2023-05-05T09:34:30.200Z,12.90
2023-05-05T09:39:34.640Z,11.52
2023-05-05T09:44:39.911Z,11.80
2023-05-05T09:49:43.030Z,11.43
2023-05-05T09:54:55.033Z,10.60
2023-05-05T09:59:59.692Z,10.50
2023-05-05T10:05:07.506Z,8.52
2023-05-05T10:10:13.871Z,8.40
2023-05-05T10:15:17.416Z,7.70
2023-05-05T10:20:21.922Z,8.52
2023-05-05T10:25:31.381Z,9.05
2023-05-05T10:30:40.218Z,9.50
2023-05-05T10:35:45.691Z,11.15
2023-05-05T10:40:51.297Z,9.98
2023-05-05T10:45:55.671Z,9.55
2023-05-05T10:51:15.350Z,9.10
2023-05-05T10:56:32.454Z,10.88
2023-05-05T11:01:36.943Z,9.07
2023-05-05T11:06:40.014Z,8.82
2023-05-05T11:12:06.560Z,9.23
2023-05-05T11:17:45.194Z,8.45
2023-05-05T11:23:25.338Z,12.03
2023-05-05T11:28:31.501Z,6.70
2023-05-05T11:33:36.826Z,7.40
2023-05-05T11:38:57.509Z,9.27
2023-05-05T11:44:11.741Z,7.07
2023-05-05T11:49:27.604Z,5.33
2023-05-05T11:54:31.454Z,4.50
2023-05-05T11:59:37.920Z,5.57
2023-05-05T12:04:41.389Z,4.43
2023-05-05T12:09:45.871Z,5.37
2023-05-05T12:14:52.855Z,4.73
2023-05-05T12:19:56.285Z,3.90
2023-05-05T12:25:02.522Z,2.97
2023-05-05T12:30:15.490Z,2.50
2023-05-05T12:35:20.202Z,5.85
2023-05-05T12:40:45.650Z,2.95
2023-05-05T12:45:58.957Z,2.80
2023-05-05T12:51:27.034Z,4.10
2023-05-05T12:56:40.814Z,3.58
2023-05-05T13:01:51.952Z,3.22
2023-05-05T13:07:12.207Z,2.80
2023-05-05T13:12:16.401Z,4.37
2023-05-05T13:17:20.813Z,5.20
2023-05-05T13:22:23.844Z,5.07
2023-05-05T13:27:27.056Z,3.90
2023-05-05T13:32:31.517Z,4.00
2023-05-05T13:37:34.774Z,4.15
2023-05-05T13:42:38.035Z,4.20
2023-05-05T13:47:44.425Z,4.40
2023-05-05T13:52:47.552Z,3.80
2023-05-05T13:57:51.605Z,3.65
2023-05-05T14:02:56.001Z,3.70
2023-05-05T14:07:59.568Z,3.72
2023-05-05T14:13:03.268Z,3.67
2023-05-05T14:18:07.782Z,3.65
2023-05-05T14:23:10.892Z,3.50
2023-05-05T14:28:14.011Z,4.57
2023-05-05T14:33:18.446Z,3.90
2023-05-05T14:38:21.745Z,4.82
2023-05-05T14:43:25.243Z,3.63
2023-05-05T14:48:29.616Z,4.20
2023-05-05T14:53:33.332Z,3.22
2023-05-05T14:58:36.508Z,4.43
2023-05-05T15:03:41.157Z,2.50
2023-05-05T15:08:44.295Z,3.60
2023-05-05T15:13:47.343Z,2.95
2023-05-05T15:18:52.134Z,3.08
2023-05-05T15:23:55.218Z,4.18
2023-05-05T15:28:58.236Z,2.95
2023-05-05T15:34:03.125Z,3.45
2023-05-05T15:39:06.179Z,2.97
2023-05-05T15:44:12.073Z,2.65
2023-05-05T15:49:16.462Z,3.95
2023-05-05T15:54:19.510Z,4.13
2023-05-05T15:59:22.577Z,4.10
2023-05-05T16:04:27.067Z,2.27
2023-05-05T16:09:30.506Z,2.00
2023-05-05T16:14:34.045Z,1.90
2023-05-05T16:19:38.561Z,3.40
2023-05-05T16:24:44.226Z,2.03
2023-05-05T16:29:47.462Z,3.07
2023-05-05T16:34:51.993Z,3.33
2023-05-05T16:39:55.049Z,2.97
2023-05-05T16:44:58.272Z,4.00
2023-05-05T16:50:02.688Z,4.07
2023-05-05T16:55:06.485Z,3.90
2023-05-05T17:00:10.536Z,2.40
2023-05-05T17:05:15.021Z,4.07
2023-05-05T17:10:18.118Z,3.20
2023-05-05T17:15:21.553Z,3.00
2023-05-05T17:20:26.577Z,3.00
2023-05-05T17:25:29.744Z,3.20
2023-05-05T17:30:32.735Z,3.33
2023-05-05T17:35:38.416Z,3.90
2023-05-05T17:40:41.413Z,3.73
2023-05-05T17:45:44.474Z,3.93
2023-05-05T17:50:49.129Z,3.23
2023-05-05T17:55:52.152Z,4.53
2023-05-05T18:00:55.219Z,3.73
2023-05-05T18:05:59.656Z,4.33
2023-05-05T18:11:02.864Z,3.43
2023-05-05T18:16:07.024Z,6.53
2023-05-05T18:21:12.177Z,7.57
2023-05-05T18:26:15.482Z,11.40
2023-05-05T18:31:18.634Z,11.33
2023-05-05T18:36:23.170Z,6.50
2023-05-05T18:41:26.656Z,5.60
2023-05-05T18:46:29.756Z,6.17
2023-05-05T18:51:34.153Z,6.43
2023-05-05T18:56:37.401Z,7.43
2023-05-05T19:01:41.397Z,6.13
2023-05-05T19:06:47.330Z,6.07
2023-05-05T19:11:50.891Z,6.67
2023-05-05T19:16:55.619Z,6.00
2023-05-05T19:22:02.207Z,6.10
2023-05-05T19:27:08.157Z,7.13
2023-05-05T19:32:11.235Z,6.70
2023-05-05T19:37:15.997Z,7.37
2023-05-05T19:42:19.208Z,7.63
2023-05-05T19:47:22.274Z,6.50
2023-05-05T19:52:26.742Z,6.50
2023-05-05T19:57:29.746Z,7.10
2023-05-05T20:02:34.744Z,6.97
2023-05-05T20:07:42.055Z,5.37
2023-05-05T20:12:48.178Z,8.60
2023-05-05T20:17:51.988Z,8.93
2023-05-05T20:22:56.333Z,7.57
2023-05-05T20:27:59.491Z,7.33
2023-05-05T20:33:02.575Z,6.00
2023-05-05T20:38:07.127Z,7.43
2023-05-05T20:43:10.246Z,9.70
2023-05-05T20:48:13.283Z,7.40
2023-05-05T20:53:18.838Z,7.63
2023-05-05T20:58:21.888Z,8.90
2023-05-05T21:03:24.957Z,8.73
2023-05-05T21:08:30.404Z,7.93
2023-05-05T21:13:33.625Z,6.17
2023-05-05T21:18:36.946Z,7.00
2023-05-05T21:23:41.296Z,7.97
2023-05-05T21:28:44.331Z,7.53
2023-05-05T21:33:47.393Z,7.33
2023-05-05T21:38:51.766Z,7.50
2023-05-05T21:43:54.793Z,6.83
2023-05-05T21:48:58.164Z,5.60
2023-05-05T21:54:02.755Z,4.90
2023-05-05T21:59:06.527Z,4.90
2023-05-05T22:04:09.592Z,4.80
2023-05-05T22:09:13.951Z,5.40
2023-05-05T22:14:17.005Z,5.80
2023-05-05T22:19:20.033Z,4.40
2023-05-05T22:24:24.381Z,5.97
2023-05-05T22:29:27.404Z,4.60
2023-05-05T22:34:30.657Z,4.57
2023-05-05T22:39:35.105Z,3.87
2023-05-05T22:44:39.232Z,4.47
2023-05-05T22:49:42.299Z,4.17
2023-05-05T22:54:46.656Z,4.57
2023-05-05T22:59:49.801Z,4.27
2023-05-05T23:04:53.316Z,4.83
2023-05-05T23:09:58.916Z,4.77
2023-05-05T23:15:01.997Z,5.37
2023-05-05T23:20:06.485Z,4.30
2023-05-05T23:25:11.572Z,3.83
2023-05-05T23:30:15.350Z,4.17
2023-05-05T23:35:18.863Z,4.33
2023-05-05T23:40:23.421Z,4.03
2023-05-05T23:45:26.424Z,3.60
2023-05-05T23:50:30.092Z,4.50
2023-05-05T23:55:34.441Z,3.63
